Anglian Lady — VOLP — position and weather

sailwx.info

Track history (hours):
 
Tides and Currents Weather Stations Pressure Air Temp Water Temp Dewpoint Dewpoint Depression Visibility Wind Speed Wind Dir Waves Ship Positions

Anglian Lady

Last reported at 2014-Oct-26 09:30 UTC. Time now 2014-Nov-01 02:02 UTC.
Position N 45°54' W 085°45'.

Length 32 m; draft 4.7 m.

Type: Tug. MMSI: 316002238.

Date/timePositionNaut miles runAvg speedWind from/ knotsBaromVisibWave heightAir tempDewpointWater temp
2014-Oct-26 09:30N 45°54' W 085°45'5 5.8
2014-Oct-26 08:33N 45°54' W 085°37'6 5.5
2014-Oct-26 07:33N 45°53' W 085°30'6 5.5
2014-Oct-26 06:29N 45°53' W 085°21'5 5.3
2014-Oct-26 05:33N 45°52' W 085°14'5 5.2
2014-Oct-26 04:33N 45°52' W 085°07'5 5.0
2014-Oct-26 03:33N 45°51' W 084°60'5 4.6
2014-Oct-26 02:33N 45°50' W 084°53'4 4.3
2014-Oct-26 01:33N 45°49' W 084°47'4 3.6
2014-Oct-26 00:33N 45°49' W 084°42'4 3.9
2014-Oct-25 23:33N 45°50' W 084°37'4 4.0
2014-Oct-25 22:33N 45°51' W 084°31'6 5.9
2014-Oct-25 21:33N 45°52' W 084°23'  
2014-Oct-19 03:31N 42°30' W 080°17'8 7.6
2014-Oct-19 02:31N 42°30' W 080°06'6 6.4
2014-Oct-19 01:33N 42°35' W 080°00'7 6.6
2014-Oct-19 00:33N 42°38' W 080°08'5 4.2
2014-Oct-18 23:28N 42°36' W 080°14'0 0.0
2014-Oct-18 22:19N 42°36' W 080°14'0 0.0
2014-Oct-18 21:28N 42°36' W 080°14'0 0.0
2014-Oct-18 20:22N 42°36' W 080°14'0 0.1
2014-Oct-18 19:25N 42°36' W 080°14'0 0.1
2014-Oct-18 18:33N 42°36' W 080°14'0 0.0
2014-Oct-18 17:33N 42°36' W 080°14'0 0.0
2014-Oct-18 16:33N 42°36' W 080°14'0 0.0
2014-Oct-18 15:32N 42°36' W 080°14'0 0.0
2014-Oct-18 14:33N 42°36' W 080°14'0 0.0
2014-Oct-18 13:32N 42°36' W 080°14'0 0.0
2014-Oct-18 12:34N 42°36' W 080°14'0 0.0
2014-Oct-18 11:34N 42°36' W 080°14'0 0.0
2014-Oct-18 10:34N 42°36' W 080°14'0 0.0
2014-Oct-18 09:31N 42°36' W 080°14'0 0.0
2014-Oct-18 08:33N 42°36' W 080°14'0 0.0
2014-Oct-18 07:34N 42°36' W 080°14'0 0.0
2014-Oct-18 06:33N 42°36' W 080°14'0 0.0
2014-Oct-18 05:30N 42°36' W 080°14'0 0.0
2014-Oct-18 04:33N 42°36' W 080°14'0 0.0
2014-Oct-18 03:33N 42°36' W 080°14'0 0.0
2014-Oct-18 02:33N 42°36' W 080°14'0 0.0
2014-Oct-18 01:32N 42°36' W 080°14'0 0.0
2014-Oct-18 00:33N 42°36' W 080°14'0 0.0
2014-Oct-17 23:33N 42°36' W 080°14'0 0.0
2014-Oct-17 22:33N 42°36' W 080°14'0 0.0
2014-Oct-17 21:31N 42°36' W 080°14'0 0.0
2014-Oct-17 20:33N 42°36' W 080°14'0 0.0
2014-Oct-17 19:33N 42°36' W 080°14'0 0.0
2014-Oct-17 18:33N 42°36' W 080°14'0 0.0
2014-Oct-17 17:33N 42°36' W 080°14'0 0.1
2014-Oct-17 16:33N 42°36' W 080°14'2 1.8
2014-Oct-17 15:33N 42°37' W 080°12'7 6.6
2014-Oct-17 14:32N 42°40' W 080°03'  
Track history (hours):
 
Tides and Currents Weather Stations Pressure Air Temp Water Temp Dewpoint Dewpoint Depression Visibility Wind Speed Wind Dir Waves Ship Positions

Anglian Lady

Last reported at 2014-Oct-26 09:30 UTC. Time now 2014-Nov-01 02:02 UTC.
Position N 45°54' W 085°45'.

Length 32 m; draft 4.7 m.

Type: Tug. MMSI: 316002238.

Date/timePositionNaut miles runAvg speedWind from/ knotsBaromVisibWave heightAir tempDewpointWater temp
2014-Oct-26 09:30N 45°54' W 085°45'5 5.8
2014-Oct-26 08:33N 45°54' W 085°37'6 5.5
2014-Oct-26 07:33N 45°53' W 085°30'6 5.5
2014-Oct-26 06:29N 45°53' W 085°21'5 5.3
2014-Oct-26 05:33N 45°52' W 085°14'5 5.2
2014-Oct-26 04:33N 45°52' W 085°07'5 5.0
2014-Oct-26 03:33N 45°51' W 084°60'5 4.6
2014-Oct-26 02:33N 45°50' W 084°53'4 4.3
2014-Oct-26 01:33N 45°49' W 084°47'4 3.6
2014-Oct-26 00:33N 45°49' W 084°42'4 3.9
2014-Oct-25 23:33N 45°50' W 084°37'4 4.0
2014-Oct-25 22:33N 45°51' W 084°31'6 5.9
2014-Oct-25 21:33N 45°52' W 084°23'  
2014-Oct-19 03:31N 42°30' W 080°17'8 7.6
2014-Oct-19 02:31N 42°30' W 080°06'6 6.4
2014-Oct-19 01:33N 42°35' W 080°00'7 6.6
2014-Oct-19 00:33N 42°38' W 080°08'5 4.2
2014-Oct-18 23:28N 42°36' W 080°14'0 0.0
2014-Oct-18 22:19N 42°36' W 080°14'0 0.0
2014-Oct-18 21:28N 42°36' W 080°14'0 0.0
2014-Oct-18 20:22N 42°36' W 080°14'0 0.1
2014-Oct-18 19:25N 42°36' W 080°14'0 0.1
2014-Oct-18 18:33N 42°36' W 080°14'0 0.0
2014-Oct-18 17:33N 42°36' W 080°14'0 0.0
2014-Oct-18 16:33N 42°36' W 080°14'0 0.0
2014-Oct-18 15:32N 42°36' W 080°14'0 0.0
2014-Oct-18 14:33N 42°36' W 080°14'0 0.0
2014-Oct-18 13:32N 42°36' W 080°14'0 0.0
2014-Oct-18 12:34N 42°36' W 080°14'0 0.0
2014-Oct-18 11:34N 42°36' W 080°14'0 0.0
2014-Oct-18 10:34N 42°36' W 080°14'0 0.0
2014-Oct-18 09:31N 42°36' W 080°14'0 0.0
2014-Oct-18 08:33N 42°36' W 080°14'0 0.0
2014-Oct-18 07:34N 42°36' W 080°14'0 0.0
2014-Oct-18 06:33N 42°36' W 080°14'0 0.0
2014-Oct-18 05:30N 42°36' W 080°14'0 0.0
2014-Oct-18 04:33N 42°36' W 080°14'0 0.0
2014-Oct-18 03:33N 42°36' W 080°14'0 0.0
2014-Oct-18 02:33N 42°36' W 080°14'0 0.0
2014-Oct-18 01:32N 42°36' W 080°14'0 0.0
2014-Oct-18 00:33N 42°36' W 080°14'0 0.0
2014-Oct-17 23:33N 42°36' W 080°14'0 0.0
2014-Oct-17 22:33N 42°36' W 080°14'0 0.0
2014-Oct-17 21:31N 42°36' W 080°14'0 0.0
2014-Oct-17 20:33N 42°36' W 080°14'0 0.0
2014-Oct-17 19:33N 42°36' W 080°14'0 0.0
2014-Oct-17 18:33N 42°36' W 080°14'0 0.0
2014-Oct-17 17:33N 42°36' W 080°14'0 0.1
2014-Oct-17 16:33N 42°36' W 080°14'2 1.8
2014-Oct-17 15:33N 42°37' W 080°12'7 6.6
2014-Oct-17 14:32N 42°40' W 080°03'  

Dump ship's entire track history